Oroville, WA (98844)

4:52 AM PDT on September 19, 2014 (GMT -0700)
CAMARAY MOTEL | Change Station
CLOSE
Current Station
Personal Weather Station
Location: Oroville, WA
Elevation: 950 ft
Nearby Weather Stations

Elev 950 ft 48.94 °N, 119.44 °W | Updated 3 minutes ago

Mostly Cloudy
Mostly Cloudy
60.8 °F
Feels Like 60.8 °F
N
0.0
Wind Variable Wind from South
Gusts 0.7 mph

Today
High -- | Low -- °F
--% Chance of Precip.
Yesterday
High -- | Low -- °F
Precip. -- in
6:40 AM 7:01 PM
Waning Crescent, 19% visible
Pressure 29.87 in
Visibility 10.0 miles
Clouds Clear
Dew Point 57 °F
Humidity 86%
Rainfall 0.00 in
Snow Depth 0 in , 0 in , 0 in
UV 0 out of 12
Pollen 7.40 out of 12
Air Quality Not available.
Flu Activity Not available.
METAR KOMK 191053Z AUTO 35004KT 10SM CLR 15/10 A2988 RMK AO2 SLP114 T01500100

More Conditions Fewer Conditions

Pressure 29.87 in
Visibility 10.0 miles
Clouds Clear
Dew Point 57 °F
Humidity 86%
Rainfall 0.00 in
Snow Depth 0 in , 0 in , 0 in
UV 0 out of 12
Pollen 7.40 out of 12
Air Quality Not available.
Flu Activity Not available.
METAR KOMK 191053Z AUTO 35004KT 10SM CLR 15/10 A2988 RMK AO2 SLP114 T01500100

More Conditions Fewer Conditions

10-Day Weather Forecast

Almanac

Astronomy

Sep. 19, 2014 Rise Set
Actual Time 6:40 AM PDT 7:01 PM PDT
Civil Twilight 6:08 AM PDT 7:33 PM PDT
Nautical Twilight 5:30 AM PDT 8:10 PM PDT
Astronomical Twilight 4:51 AM PDT 8:49 PM PDT
Moon 2:12 AM PDT 4:48 PM PDT
Length of Visible Light 13h 24m
Length of Day
12h 21m
Tomorrow will be 3m 34s shorter.
Waning Crescent, 19% of the Moon is Illuminated
Today
Waning Crescent
Sep 24
New
Oct 1
First Quarter
Oct 8
Full
Oct 15
Last Quarter

Today's Extremes

State Highs State Lows

Community

WunderPhotos

Upload Photos

1,754,597 photos uploaded!

Nearby

Snow Depth

Station Depth Elevation
Sourdough Gulch 0 in 4000 ft
Beaver Pass 0 in 3620 ft
Park Creek Ridge 0 in 4600 ft
Lone Pine 0 in 3800 ft
Wells Creek 0 in 4200 ft

Earthquake Activity

City Distance Mag. Time & Date
No recent earthquake activity has been reported nearby.
Minimum magnitude displayed is 2.5.

Coastal Water Temperatures

Place Temperature
No Stations Reporting

Nearby Weather Stations